EHEH/EIN METAR and TAF weather

Enter ICAO airport designator
Station Type Date Time Source
EHEH METAR 2019/04/18 20:25 UTC NOAA

EHEH 182025Z AUTO 07010KT 030V100 9999 OVC250 18/02 Q1025 BLU 06008KT CAVOK


Station Type Date Time Source
EHEH Decoded METAR 2019/04/18 20:25 UTC NOAA

Eindhoven, Netherlands (EHEH) 51-27N 005-25E 28M
Apr 18, 2019 - 04:25 PM EDT / 2019.04.18 2025 UTC
Wind: from the ENE (070 degrees) at 12 MPH (10 KT) (direction variable):0
Visibility: greater than 7 mile(s):0
Sky conditions: overcast
Temperature: 64 F (18 C)
Dew Point: 35 F (2 C)
Relative Humidity: 34%
Pressure (altimeter): 30.27 in. Hg (1025 hPa)
ob: EHEH 182025Z AUTO 07010KT 030V100 9999 OVC250 18/02 Q1025 BLU 06008KT CAVOK
cycle: 20

Station Type Date Time Source
EHEH TAF 2019/04/18 18:54 UTC NOAA

TAF TAF EHEH 181632Z 1818/1924 07011KT CAVOK

Example: see airport list